Time;durP1;ratioP1;P1;durP2;ratioP2;P2;SDS_P1;SDS_P2;PMS_P1;PMS_P2;Temp;Humidity;BMP_temperature;BMP_pressure;BME280_temperature;BME280_humidity;BME280_pressure;Samples;Min_cycle;Max_cycle;Signal;HPM_P1;HPM_P2
2023/07/26 00:01:41;;;;;;;4.78;2.63;;;12.60;99.90;;;;;;5036905;28;20466;-45
2023/07/26 00:04:08;;;;;;;5.35;2.33;;;12.60;99.90;;;;;;5030140;28;20049;-49
2023/07/26 00:06:34;;;;;;;6.25;2.40;;;12.60;99.90;;;;;;5027572;28;20117;-45
2023/07/26 00:09:00;;;;;;;3.25;2.10;;;12.60;99.90;;;;;;5027244;28;20125;-45
2023/07/26 00:11:25;;;;;;;4.45;2.33;;;12.60;99.90;;;;;;5035168;28;20049;-47
2023/07/26 00:13:51;;;;;;;6.03;2.38;;;12.60;99.90;;;;;;5027886;28;20080;-47
2023/07/26 00:16:17;;;;;;;5.45;2.20;;;12.60;99.90;;;;;;5038015;28;20060;-45
2023/07/26 00:18:43;;;;;;;5.20;2.40;;;12.60;99.90;;;;;;5028392;28;20098;-45
2023/07/26 00:21:08;;;;;;;;;;;12.60;99.90;;;;;;5026219;28;20468;-46
2023/07/26 00:23:34;;;;;;;5.00;2.40;;;12.60;99.90;;;;;;5026254;28;20496;-47
2023/07/26 00:26:00;;;;;;;4.20;2.20;;;12.80;99.90;;;;;;5027261;28;20403;-45
2023/07/26 00:28:25;;;;;;;3.90;2.28;;;12.80;99.90;;;;;;5025592;28;20527;-45
2023/07/26 00:30:51;;;;;;;5.18;2.17;;;12.80;99.90;;;;;;5026693;28;20044;-47
2023/07/26 00:33:17;;;;;;;5.47;2.40;;;12.90;99.90;;;;;;5025911;28;20037;-45
2023/07/26 00:35:43;;;;;;;4.05;2.28;;;12.70;99.90;;;;;;5027788;28;20407;-45
2023/07/26 00:38:10;;;;;;;4.57;2.55;;;12.70;99.90;;;;;;5026567;28;20380;-45
2023/07/26 00:40:36;;;;;;;4.05;2.50;;;12.60;99.90;;;;;;5027230;28;20939;-45
2023/07/26 00:43:01;;;;;;;5.80;2.72;;;12.70;99.90;;;;;;5026738;28;20080;-45
2023/07/26 00:45:30;;;;;;;7.97;3.28;;;12.70;99.90;;;;;;5027034;28;20077;-45
2023/07/26 00:47:57;;;;;;;5.53;2.92;;;12.60;99.90;;;;;;5027373;28;20049;-50
2023/07/26 00:50:23;;;;;;;7.10;3.90;;;12.60;99.90;;;;;;5026691;28;20037;-45
2023/07/26 00:52:49;;;;;;;7.65;3.22;;;12.90;99.90;;;;;;5026238;28;20103;-45
2023/07/26 00:55:16;;;;;;;6.65;3.05;;;12.60;99.90;;;;;;5026228;28;20045;-45
2023/07/26 00:57:42;;;;;;;7.10;3.22;;;12.60;99.90;;;;;;5025844;28;20128;-48
2023/07/26 01:00:09;;;;;;;5.75;3.00;;;12.60;99.90;;;;;;5027080;28;20124;-48
2023/07/26 01:02:34;;;;;;;7.88;3.10;;;12.60;99.90;;;;;;5039107;28;20053;-45
2023/07/26 01:05:01;;;;;;;7.32;3.50;;;12.60;99.90;;;;;;5044575;28;20483;-45
2023/07/26 01:07:30;;;;;;;7.85;3.55;;;12.60;99.90;;;;;;5046614;28;20082;-51
2023/07/26 01:10:16;;;;;;;7.90;3.38;;;12.60;99.90;;;;;;5042170;28;20164;-46
2023/07/26 01:12:54;;;;;;;9.25;4.07;;;12.60;99.90;;;;;;5027108;28;20049;-47
2023/07/26 01:15:24;;;;;;;6.28;3.50;;;12.50;99.90;;;;;;5036333;28;20045;-50
2023/07/26 01:18:07;;;;;;;7.53;3.70;;;12.50;99.90;;;;;;5027574;28;20049;-50
2023/07/26 01:20:32;;;;;;;8.10;4.20;;;12.50;99.90;;;;;;5026103;28;20132;-48
2023/07/26 01:22:58;;;;;;;7.85;3.92;;;12.50;99.90;;;;;;5027493;28;20136;-48
2023/07/26 01:25:23;;;;;;;9.90;4.25;;;12.40;99.90;;;;;;5026881;28;20068;-46
2023/07/26 01:27:49;;;;;;;10.25;4.00;;;12.50;99.90;;;;;;5026396;28;20514;-46
2023/07/26 01:30:17;;;;;;;8.55;4.32;;;12.50;99.90;;;;;;5026759;28;20040;-47
2023/07/26 01:32:45;;;;;;;7.82;4.30;;;12.40;99.90;;;;;;5025496;28;20114;-48
2023/07/26 01:35:11;;;;;;;6.55;4.05;;;12.50;99.90;;;;;;5029750;28;20045;-47
2023/07/26 01:37:37;;;;;;;9.23;3.97;;;12.40;99.90;;;;;;5039826;28;20118;-45
2023/07/26 01:40:05;;;;;;;6.40;3.08;;;12.40;99.90;;;;;;5050246;28;20056;-45
2023/07/26 01:42:32;;;;;;;7.10;3.67;;;12.40;99.90;;;;;;5033965;28;20045;-45
2023/07/26 01:45:04;;;;;;;5.85;3.33;;;12.60;99.90;;;;;;5029815;28;20052;-46
2023/07/26 01:47:30;;;;;;;6.85;3.25;;;12.50;99.90;;;;;;5029307;28;20049;-47
2023/07/26 01:49:56;;;;;;;8.13;3.70;;;12.40;99.90;;;;;;5028863;28;20095;-46
2023/07/26 01:52:25;;;;;;;4.47;3.40;;;12.40;99.90;;;;;;5029425;28;20116;-44
2023/07/26 01:54:51;;;;;;;9.02;3.90;;;12.40;99.90;;;;;;5030239;28;20045;-47
2023/07/26 01:57:17;;;;;;;7.47;4.55;;;12.60;99.90;;;;;;5029934;28;20053;-47
2023/07/26 01:59:42;;;;;;;7.75;5.03;;;12.40;99.90;;;;;;5012627;28;20045;-45
2023/07/26 02:02:08;;;;;;;9.07;5.85;;;12.40;99.90;;;;;;5035658;28;20045;-46
2023/07/26 02:04:34;;;;;;;11.90;7.05;;;12.40;99.90;;;;;;5040021;28;20400;-46
2023/07/26 02:06:59;;;;;;;13.43;7.85;;;12.30;99.90;;;;;;5030106;28;20072;-50
2023/07/26 02:09:25;;;;;;;12.48;8.27;;;12.40;99.90;;;;;;5035143;28;20046;-47
2023/07/26 02:11:51;;;;;;;12.95;7.90;;;12.40;99.90;;;;;;5047725;28;20052;-45
2023/07/26 02:14:16;;;;;;;10.57;8.13;;;12.30;99.90;;;;;;5042267;28;20053;-49
2023/07/26 02:16:42;;;;;;;10.98;8.13;;;12.30;99.90;;;;;;5038188;28;20045;-47
2023/07/26 02:19:08;;;;;;;14.40;7.45;;;12.40;99.90;;;;;;5043920;28;20478;-46
2023/07/26 02:21:33;;;;;;;12.48;7.35;;;12.20;99.90;;;;;;5029179;28;20107;-45
2023/07/26 02:23:59;;;;;;;12.77;7.63;;;12.10;99.90;;;;;;5029174;28;20055;-45
2023/07/26 02:26:25;;;;;;;11.05;7.28;;;12.10;99.90;;;;;;5027359;28;20049;-45
2023/07/26 02:28:50;;;;;;;10.80;7.82;;;12.10;99.90;;;;;;5027887;28;20045;-46
2023/07/26 02:31:16;;;;;;;11.45;7.72;;;12.10;99.90;;;;;;5028000;28;20514;-45
2023/07/26 02:33:42;;;;;;;17.85;8.07;;;12.00;99.90;;;;;;5027321;28;20033;-47
2023/07/26 02:36:08;;;;;;;10.45;7.03;;;12.10;99.90;;;;;;5028312;28;20780;-45
2023/07/26 02:38:33;;;;;;;12.13;7.30;;;11.90;99.90;;;;;;5028061;28;20045;-45
2023/07/26 02:40:59;;;;;;;10.30;6.50;;;11.90;99.90;;;;;;5028109;28;20457;-48
2023/07/26 02:43:24;;;;;;;8.93;5.95;;;12.30;99.90;;;;;;5030000;28;20050;-45
2023/07/26 02:45:50;;;;;;;9.55;6.95;;;11.90;99.90;;;;;;5028561;28;20472;-47
2023/07/26 02:48:15;;;;;;;9.20;6.68;;;11.90;99.90;;;;;;5026960;28;20073;-48
2023/07/26 02:50:42;;;;;;;427.17;271.70;;;11.90;99.90;;;;;;5026616;28;20677;-47
2023/07/26 02:53:07;;;;;;;;;;;11.70;99.90;;;;;;5028366;28;20388;-48
2023/07/26 02:55:33;;;;;;;;;;;11.70;99.90;;;;;;5027360;28;25064;-48
2023/07/26 02:57:58;;;;;;;;;;;11.80;99.90;;;;;;5028086;28;20000;-46
2023/07/26 03:00:24;;;;;;;;;;;11.80;99.90;;;;;;5026268;28;20422;-45
2023/07/26 03:02:49;;;;;;;;;;;11.70;99.90;;;;;;5026759;28;19932;-47
2023/07/26 03:05:15;;;;;;;;;;;12.40;99.90;;;;;;5026531;28;20398;-45
2023/07/26 03:07:40;;;;;;;;;;;11.90;99.90;;;;;;5045493;28;20019;-46
2023/07/26 03:10:06;;;;;;;11.40;8.48;;;11.90;99.90;;;;;;5026261;28;20470;-48
2023/07/26 03:12:32;;;;;;;1008.80;749.38;;;12.00;99.90;;;;;;5028177;28;20103;-46
2023/07/26 03:14:57;;;;;;;9.35;7.63;;;11.90;99.90;;;;;;5034474;28;20037;-45
2023/07/26 03:17:23;;;;;;;8.57;6.72;;;11.80;99.90;;;;;;5031871;28;20052;-47
2023/07/26 03:19:50;;;;;;;7.50;5.63;;;11.80;99.90;;;;;;5044193;28;20037;-45
2023/07/26 03:22:15;;;;;;;9.05;5.80;;;11.70;99.90;;;;;;5011432;28;1058225;-49
2023/07/26 03:24:41;;;;;;;7.32;5.60;;;11.70;99.90;;;;;;5047537;28;20041;-46
2023/07/26 03:27:08;;;;;;;8.10;5.38;;;11.60;99.90;;;;;;5042531;28;20049;-48
2023/07/26 03:29:33;;;;;;;9.38;5.60;;;11.60;99.90;;;;;;5029262;28;20085;-47
2023/07/26 03:31:59;;;;;;;9.27;5.38;;;11.60;99.90;;;;;;5028325;28;20079;-51
2023/07/26 03:34:24;;;;;;;8.30;5.25;;;11.60;99.90;;;;;;5027229;28;20175;-45
2023/07/26 03:36:50;;;;;;;7.60;5.57;;;11.60;99.90;;;;;;5027883;28;20373;-46
2023/07/26 03:39:16;;;;;;;8.05;5.30;;;11.60;99.90;;;;;;5026995;28;20056;-46
2023/07/26 03:41:41;;;;;;;7.72;5.22;;;11.60;99.90;;;;;;5026656;28;20053;-46
2023/07/26 03:44:07;;;;;;;7.57;5.40;;;11.60;99.90;;;;;;5028170;28;20555;-45
2023/07/26 03:46:33;;;;;;;6.93;4.85;;;11.60;99.90;;;;;;5027497;28;20045;-48
2023/07/26 03:48:58;;;;;;;7.75;5.18;;;11.70;99.90;;;;;;5026936;28;20073;-50
2023/07/26 03:51:24;;;;;;;10.38;5.45;;;11.70;99.90;;;;;;5027250;28;20037;-45
2023/07/26 03:53:49;;;;;;;8.80;5.57;;;11.70;99.90;;;;;;5026285;28;20095;-45
2023/07/26 03:56:15;;;;;;;9.43;5.75;;;11.70;99.90;;;;;;5027603;28;20091;-45
2023/07/26 03:58:40;;;;;;;7.88;5.80;;;12.90;99.90;;;;;;5027591;28;20167;-45
2023/07/26 04:01:06;;;;;;;11.70;6.82;;;11.70;99.90;;;;;;5028028;28;20056;-51
2023/07/26 04:03:32;;;;;;;11.07;6.10;;;11.70;99.90;;;;;;5027628;28;20034;-46
2023/07/26 04:05:57;;;;;;;7.78;5.57;;;11.70;99.90;;;;;;5037211;28;20033;-45
2023/07/26 04:08:23;;;;;;;8.15;6.43;;;11.70;99.90;;;;;;5045529;28;20174;-45
2023/07/26 04:10:48;;;;;;;8.38;6.20;;;11.60;99.90;;;;;;5046884;28;20118;-46
2023/07/26 04:13:14;;;;;;;10.35;6.20;;;11.60;99.90;;;;;;5047185;28;20176;-48
2023/07/26 04:15:40;;;;;;;10.48;5.97;;;11.70;99.90;;;;;;5039693;28;20044;-46
2023/07/26 04:18:05;;;;;;;8.50;5.80;;;11.70;99.90;;;;;;5026759;28;20447;-45
2023/07/26 04:20:31;;;;;;;10.05;6.07;;;11.70;99.90;;;;;;5026942;28;20619;-45
2023/07/26 04:22:57;;;;;;;10.27;6.10;;;11.70;99.90;;;;;;5026732;28;20053;-45
2023/07/26 04:25:22;;;;;;;8.25;5.63;;;11.80;99.90;;;;;;5027472;28;20041;-47
2023/07/26 04:27:48;;;;;;;9.73;5.47;;;11.80;99.90;;;;;;5027240;28;20735;-45
2023/07/26 04:30:13;;;;;;;7.07;5.75;;;11.80;99.90;;;;;;5026878;28;20034;-47
2023/07/26 04:32:39;;;;;;;8.65;6.10;;;11.90;99.90;;;;;;5025326;28;20041;-46
2023/07/26 04:35:05;;;;;;;9.40;6.15;;;11.90;99.90;;;;;;5042300;28;20060;-46
2023/07/26 04:37:30;;;;;;;9.02;6.70;;;11.90;99.90;;;;;;5026782;28;20436;-46
2023/07/26 04:39:56;;;;;;;8.32;6.38;;;11.90;99.90;;;;;;5026115;28;20057;-46
2023/07/26 04:42:22;;;;;;;11.07;7.10;;;11.90;99.90;;;;;;5026815;28;20041;-45
2023/07/26 04:44:47;;;;;;;7.65;6.47;;;11.90;99.90;;;;;;5027054;28;20041;-46
2023/07/26 04:47:15;;;;;;;10.05;6.78;;;12.00;99.90;;;;;;5027540;28;20041;-45
2023/07/26 04:49:41;;;;;;;10.20;6.88;;;12.00;99.90;;;;;;5025286;28;20129;-45
2023/07/26 04:52:07;;;;;;;10.82;5.90;;;12.00;99.90;;;;;;5027525;28;20087;-45
2023/07/26 04:54:32;;;;;;;10.63;6.72;;;12.00;99.90;;;;;;5026555;28;20042;-49
2023/07/26 04:56:58;;;;;;;10.55;6.50;;;12.00;99.90;;;;;;5026249;28;20041;-47
2023/07/26 04:59:24;;;;;;;9.55;7.05;;;12.00;99.90;;;;;;5041922;28;20046;-45
2023/07/26 05:01:49;;;;;;;13.75;7.10;;;12.10;99.90;;;;;;5026753;28;20077;-49
2023/07/26 05:04:15;;;;;;;11.02;6.88;;;12.00;99.90;;;;;;5025234;28;20046;-47
2023/07/26 05:06:40;;;;;;;12.05;7.30;;;12.20;99.90;;;;;;5042475;28;20078;-48
2023/07/26 05:09:06;;;;;;;10.30;7.18;;;12.30;99.90;;;;;;5048309;28;20083;-45
2023/07/26 05:11:32;;;;;;;9.50;6.15;;;12.20;99.90;;;;;;5050554;28;20552;-45
2023/07/26 05:13:57;;;;;;;9.15;5.90;;;12.40;99.90;;;;;;5047578;28;20077;-47
2023/07/26 05:16:23;;;;;;;9.02;5.90;;;12.60;99.90;;;;;;5038803;28;20053;-46
2023/07/26 05:18:49;;;;;;;8.68;5.40;;;12.60;99.90;;;;;;5029193;28;20396;-47
2023/07/26 05:21:14;;;;;;;10.02;5.78;;;12.60;99.90;;;;;;5044551;28;20068;-45
2023/07/26 05:23:40;;;;;;;8.18;5.45;;;12.60;99.90;;;;;;5030537;28;20046;-45
2023/07/26 05:26:05;;;;;;;8.30;5.18;;;12.80;99.90;;;;;;5030920;28;20053;-47
2023/07/26 05:28:31;;;;;;;6.65;5.10;;;13.20;99.90;;;;;;5030486;28;20045;-47
2023/07/26 05:30:57;;;;;;;6.45;4.22;;;13.70;99.90;;;;;;5030331;28;20214;-45
2023/07/26 05:33:22;;;;;;;7.82;5.10;;;14.10;99.90;;;;;;5029644;28;20531;-46
2023/07/26 05:35:48;;;;;;;8.82;5.25;;;14.30;99.90;;;;;;5045633;28;20101;-49
2023/07/26 05:38:14;;;;;;;8.73;5.05;;;14.10;99.90;;;;;;5029718;28;20497;-46
2023/07/26 05:40:39;;;;;;;8.60;5.40;;;13.90;99.90;;;;;;5030004;28;20080;-48
2023/07/26 05:43:05;;;;;;;9.48;5.55;;;13.70;99.90;;;;;;5029961;28;20045;-46
2023/07/26 05:45:31;;;;;;;8.55;5.13;;;13.80;99.90;;;;;;5030097;28;20490;-47
2023/07/26 05:47:56;;;;;;;8.45;4.93;;;13.90;99.90;;;;;;5028585;28;20050;-47
2023/07/26 05:50:22;;;;;;;8.90;5.00;;;13.70;99.90;;;;;;5029784;28;20044;-45
2023/07/26 05:52:48;;;;;;;8.00;4.43;;;13.60;99.90;;;;;;5029489;28;20048;-45
2023/07/26 05:55:13;;;;;;;9.85;4.63;;;13.50;99.90;;;;;;5029600;28;20050;-45
2023/07/26 05:57:39;;;;;;;7.25;4.10;;;13.50;99.90;;;;;;5030315;28;20038;-45
2023/07/26 06:00:05;;;;;;;9.55;4.65;;;13.50;99.90;;;;;;5030068;28;20475;-45
2023/07/26 06:02:31;;;;;;;7.35;4.97;;;13.60;99.90;;;;;;5027714;28;20411;-45
2023/07/26 06:04:57;;;;;;;11.10;5.20;;;13.60;99.90;;;;;;5028484;28;20052;-45
2023/07/26 06:07:22;;;;;;;10.20;5.22;;;13.50;99.90;;;;;;5029776;28;20130;-45
2023/07/26 06:09:48;;;;;;;8.50;5.32;;;13.60;99.90;;;;;;5039823;28;20045;-46
2023/07/26 06:12:13;;;;;;;8.30;5.03;;;13.50;99.90;;;;;;5036534;28;20507;-46
2023/07/26 06:14:39;;;;;;;9.50;5.60;;;13.60;99.90;;;;;;5035422;28;20032;-45
2023/07/26 06:17:05;;;;;;;8.05;4.70;;;13.50;99.90;;;;;;5043873;28;20484;-45
2023/07/26 06:19:31;;;;;;;6.13;4.43;;;13.50;99.90;;;;;;5048102;28;20128;-49
2023/07/26 06:21:56;;;;;;;8.75;4.72;;;13.50;99.90;;;;;;5030520;28;20543;-49
2023/07/26 06:24:25;;;;;;;7.97;4.30;;;13.60;99.90;;;;;;5031204;28;20120;-46
2023/07/26 06:26:52;;;;;;;7.38;4.00;;;13.60;99.90;;;;;;5049829;28;20440;-46
2023/07/26 06:29:18;;;;;;;6.53;3.67;;;13.50;99.90;;;;;;5048929;28;20131;-45
2023/07/26 06:31:44;;;;;;;6.28;4.00;;;13.50;99.90;;;;;;5048869;28;20119;-46
2023/07/26 06:34:10;;;;;;;6.78;3.83;;;13.40;99.90;;;;;;5047183;28;20120;-45
2023/07/26 06:36:35;;;;;;;6.53;3.17;;;13.40;99.90;;;;;;5031644;28;20038;-45
2023/07/26 06:39:01;;;;;;;5.78;3.00;;;13.50;99.90;;;;;;5028984;28;20464;-48
2023/07/26 06:41:27;;;;;;;4.72;2.75;;;13.40;99.90;;;;;;5028629;28;20037;-46
2023/07/26 06:43:52;;;;;;;7.50;2.63;;;13.50;99.90;;;;;;5035843;28;20041;-48
2023/07/26 06:46:18;;;;;;;6.32;2.70;;;13.60;99.90;;;;;;5037358;28;20072;-46
2023/07/26 06:48:44;;;;;;;5.93;2.55;;;13.50;99.90;;;;;;5037324;28;20052;-45
2023/07/26 06:51:09;;;;;;;4.22;2.67;;;13.50;99.90;;;;;;5037745;28;20026;-46
2023/07/26 06:53:35;;;;;;;5.57;2.92;;;13.40;99.90;;;;;;5037180;28;20053;-45
2023/07/26 06:56:01;;;;;;;7.13;2.90;;;13.40;99.90;;;;;;5031547;28;20400;-47
2023/07/26 06:58:27;;;;;;;7.68;3.17;;;13.30;99.90;;;;;;5029012;28;20500;-46
2023/07/26 07:00:55;;;;;;;6.55;3.00;;;13.30;99.90;;;;;;5028364;28;20046;-46
2023/07/26 07:03:21;;;;;;;5.75;3.10;;;13.40;99.90;;;;;;5039611;28;20124;-45
2023/07/26 07:05:47;;;;;;;6.30;3.25;;;13.40;99.90;;;;;;5048621;28;20044;-47
2023/07/26 07:08:13;;;;;;;7.18;2.88;;;13.70;99.90;;;;;;5048946;28;20571;-47
2023/07/26 07:10:38;;;;;;;5.28;2.58;;;13.90;99.90;;;;;;5047025;28;20045;-45
2023/07/26 07:13:04;;;;;;;3.85;2.00;;;14.20;99.90;;;;;;5048470;28;20115;-45
2023/07/26 07:15:30;;;;;;;5.82;2.13;;;15.10;99.90;;;;;;5042236;28;20426;-46
2023/07/26 07:17:55;;;;;;;5.72;2.10;;;15.80;99.90;;;;;;5041828;28;20094;-48
2023/07/26 07:20:21;;;;;;;4.88;2.08;;;16.30;99.90;;;;;;5048416;28;20037;-47
2023/07/26 07:22:47;;;;;;;3.80;2.10;;;16.30;99.90;;;;;;5046967;28;20045;-50
2023/07/26 07:25:12;;;;;;;3.55;2.20;;;16.00;99.90;;;;;;5037944;28;20029;-49
2023/07/26 07:27:38;;;;;;;3.55;1.67;;;15.50;99.90;;;;;;5047526;28;20049;-46
2023/07/26 07:30:05;;;;;;;3.03;2.10;;;15.40;99.90;;;;;;5045311;28;20034;-47
2023/07/26 07:32:31;;;;;;;3.85;1.90;;;15.20;99.90;;;;;;5026310;28;20046;-47
2023/07/26 07:34:57;;;;;;;3.40;1.95;;;15.00;99.90;;;;;;5030338;28;20052;-50
2023/07/26 07:37:22;;;;;;;5.07;2.00;;;15.10;99.90;;;;;;5027681;28;20408;-47
2023/07/26 07:39:48;;;;;;;3.80;2.13;;;15.70;99.90;;;;;;5026400;28;20519;-47
2023/07/26 07:42:13;;;;;;;6.15;2.30;;;16.50;99.90;;;;;;5029216;28;20056;-49
2023/07/26 07:44:39;;;;;;;6.43;2.05;;;17.00;99.90;;;;;;5045193;28;20041;-48
2023/07/26 07:47:05;;;;;;;3.97;1.95;;;17.10;99.90;;;;;;5045478;28;20376;-47
2023/07/26 07:49:31;;;;;;;4.03;1.60;;;17.30;99.90;;;;;;5046918;28;20488;-49
2023/07/26 07:51:56;;;;;;;3.22;1.50;;;17.50;99.90;;;;;;5046932;28;20048;-49
2023/07/26 07:54:22;;;;;;;3.00;1.50;;;17.50;99.90;;;;;;5047542;28;20138;-49
2023/07/26 07:56:48;;;;;;;4.18;1.77;;;17.50;99.90;;;;;;5040879;28;20042;-47
2023/07/26 07:59:13;;;;;;;4.00;1.83;;;17.30;99.90;;;;;;5032044;28;20037;-48
2023/07/26 08:01:39;;;;;;;6.25;1.88;;;17.30;99.90;;;;;;5046416;28;20074;-47
2023/07/26 08:04:05;;;;;;;4.15;1.60;;;17.40;99.90;;;;;;5037492;28;20037;-48
2023/07/26 08:06:32;;;;;;;2.97;1.55;;;17.30;99.90;;;;;;5027333;28;20045;-48
2023/07/26 08:08:58;;;;;;;5.47;1.80;;;17.10;99.90;;;;;;5027967;28;20059;-46
2023/07/26 08:11:24;;;;;;;4.10;1.70;;;16.90;99.90;;;;;;5042269;28;20045;-53
2023/07/26 08:13:49;;;;;;;4.22;1.92;;;16.60;99.90;;;;;;5044436;28;20033;-50
2023/07/26 08:16:15;;;;;;;2.78;1.75;;;16.60;99.90;;;;;;5035750;28;20511;-46
2023/07/26 08:18:41;;;;;;;2.63;1.60;;;16.60;99.90;;;;;;5037314;28;20099;-48
2023/07/26 08:21:06;;;;;;;4.25;1.38;;;16.90;99.90;;;;;;5033576;28;20049;-47
2023/07/26 08:23:32;;;;;;;4.45;1.48;;;16.70;99.90;;;;;;5027097;28;20623;-46
2023/07/26 08:26:04;;;;;;;2.22;1.30;;;16.90;99.90;;;;;;5026804;28;20064;-47
2023/07/26 08:28:30;;;;;;;2.60;1.30;;;17.00;99.90;;;;;;5027260;28;20041;-48
2023/07/26 08:30:57;;;;;;;2.70;1.27;;;17.00;99.90;;;;;;5026808;28;20480;-49
2023/07/26 08:33:23;;;;;;;3.25;1.55;;;16.90;99.90;;;;;;5025288;28;20084;-48
2023/07/26 08:35:49;;;;;;;3.05;1.52;;;17.00;99.90;;;;;;5032208;28;20121;-48
2023/07/26 08:38:14;;;;;;;3.58;1.40;;;17.00;99.90;;;;;;5046904;28;20047;-47
2023/07/26 08:40:48;;;;;;;2.25;1.58;;;17.00;99.90;;;;;;5045922;28;20048;-48
2023/07/26 08:43:17;;;;;;;3.90;2.00;;;16.90;99.90;;;;;;5046002;28;20091;-47
2023/07/26 08:45:43;;;;;;;3.42;1.67;;;16.70;99.90;;;;;;5043835;28;20045;-47
2023/07/26 08:48:09;;;;;;;3.75;2.08;;;16.70;99.90;;;;;;5032647;28;20053;-46
2023/07/26 08:50:39;;;;;;;3.45;1.70;;;16.50;99.90;;;;;;5026512;28;20555;-47
2023/07/26 08:53:06;;;;;;;2.80;1.60;;;16.50;99.90;;;;;;5027084;28;20088;-48
2023/07/26 08:55:32;;;;;;;2.60;1.55;;;16.50;99.90;;;;;;5039423;28;20037;-46
2023/07/26 08:58:01;;;;;;;2.67;1.50;;;16.60;99.90;;;;;;5028157;28;20120;-46
2023/07/26 09:00:28;;;;;;;2.28;1.20;;;16.70;99.90;;;;;;5038210;28;20081;-45
2023/07/26 09:02:59;;;;;;;2.15;1.20;;;16.80;99.90;;;;;;5041070;28;20085;-44
2023/07/26 09:05:24;;;;;;;2.30;1.10;;;17.00;99.90;;;;;;5026545;28;20053;-43
2023/07/26 09:07:51;;;;;;;2.88;1.30;;;17.10;99.90;;;;;;5026986;28;20041;-47
2023/07/26 09:10:27;;;;;;;1.85;1.25;;;17.30;99.90;;;;;;5032726;28;20047;-46
2023/07/26 09:13:13;;;;;;;3.35;1.60;;;17.40;99.90;;;;;;5046619;28;20403;-46
2023/07/26 09:15:42;;;;;;;3.30;1.25;;;17.50;99.90;;;;;;5039503;28;20041;-46
2023/07/26 09:18:08;;;;;;;3.28;1.10;;;17.70;99.90;;;;;;5025175;28;20045;-43
2023/07/26 09:20:35;;;;;;;1.60;0.88;;;17.80;99.90;;;;;;5026677;28;20057;-43
2023/07/26 09:23:11;;;;;;;1.35;0.90;;;17.90;99.90;;;;;;5026760;28;20108;-44
2023/07/26 09:25:43;;;;;;;1.55;0.80;;;18.10;99.90;;;;;;5026480;28;20125;-44
2023/07/26 09:28:13;;;;;;;2.58;0.73;;;18.00;99.90;;;;;;5026646;28;20048;-45
2023/07/26 09:30:45;;;;;;;1.35;0.93;;;17.80;99.90;;;;;;5026003;28;20084;-46
2023/07/26 09:33:12;;;;;;;2.10;1.10;;;17.70;99.90;;;;;;5025550;28;20060;-45
2023/07/26 09:35:53;;;;;;;2.30;1.30;;;17.70;99.90;;;;;;5035333;28;20071;-44
2023/07/26 09:38:24;;;;;;;2.13;1.08;;;17.90;99.90;;;;;;5046616;28;20072;-44
2023/07/26 09:40:49;;;;;;;4.53;1.25;;;17.90;99.90;;;;;;5046388;28;20045;-43
2023/07/26 09:43:29;;;;;;;1.85;1.27;;;18.00;99.90;;;;;;5046229;28;20098;-45
2023/07/26 09:46:02;;;;;;;3.03;1.48;;;18.10;99.90;;;;;;5046058;28;20398;-44
2023/07/26 09:48:28;;;;;;;3.55;1.50;;;18.10;99.90;;;;;;5045213;28;20045;-45
2023/07/26 09:50:55;;;;;;;3.38;1.30;;;18.10;99.90;;;;;;5044658;28;20060;-44
2023/07/26 09:53:22;;;;;;;3.53;1.65;;;18.40;99.90;;;;;;5046939;28;20037;-46
2023/07/26 09:55:49;;;;;;;2.20;1.52;;;18.80;99.90;;;;;;5048995;28;20163;-45
2023/07/26 09:58:17;;;;;;;3.13;1.52;;;18.60;99.90;;;;;;5049572;28;20045;-46
2023/07/26 10:00:46;;;;;;;2.92;1.60;;;18.60;99.90;;;;;;5049612;28;20045;-46
2023/07/26 10:03:15;;;;;;;2.33;1.30;;;18.70;99.90;;;;;;5032314;28;20076;-45
2023/07/26 10:05:51;;;;;;;4.00;1.65;;;18.80;99.90;;;;;;5011500;28;20087;-46
2023/07/26 10:08:19;;;;;;;3.65;1.80;;;18.90;99.80;;;;;;5029701;28;20049;-45
2023/07/26 10:10:47;;;;;;;2.40;1.70;;;18.80;99.40;;;;;;5038902;28;20103;-45
2023/07/26 10:13:15;;;;;;;2.90;1.75;;;18.70;99.90;;;;;;5049165;28;20542;-45
2023/07/26 10:15:45;;;;;;;2.70;1.63;;;18.60;99.90;;;;;;5046582;28;20048;-45
2023/07/26 10:18:11;;;;;;;4.85;1.77;;;18.80;99.90;;;;;;5028780;28;20167;-44
2023/07/26 10:20:40;;;;;;;4.00;1.90;;;19.10;99.90;;;;;;5029100;28;20053;-45
2023/07/26 10:23:10;;;;;;;3.15;1.83;;;19.20;99.50;;;;;;5030078;28;20053;-45
2023/07/26 10:25:37;;;;;;;3.83;1.73;;;19.20;99.90;;;;;;5029351;28;20045;-45
2023/07/26 10:28:03;;;;;;;3.55;1.83;;;19.20;99.80;;;;;;5029334;28;20416;-44
2023/07/26 10:30:30;;;;;;;2.13;1.55;;;19.30;99.90;;;;;;5041137;28;20045;-46
2023/07/26 10:32:59;;;;;;;3.53;1.60;;;19.40;99.40;;;;;;5048822;28;20095;-45
2023/07/26 10:35:29;;;;;;;2.72;1.80;;;19.40;98.50;;;;;;5049187;28;20077;-47
2023/07/26 10:37:58;;;;;;;3.25;1.90;;;19.40;98.50;;;;;;5047977;28;20058;-46
2023/07/26 10:40:33;;;;;;;3.28;1.90;;;19.30;98.60;;;;;;5049121;28;20044;-47
2023/07/26 10:42:59;;;;;;;3.38;1.52;;;19.60;99.00;;;;;;5048463;28;20090;-45
2023/07/26 10:45:43;;;;;;;3.50;1.70;;;19.60;99.10;;;;;;5048078;28;20468;-45
2023/07/26 10:48:34;;;;;;;2.53;1.42;;;19.40;98.20;;;;;;5033724;28;20091;-44
2023/07/26 10:51:00;;;;;;;2.50;1.30;;;18.80;97.30;;;;;;5040809;28;20046;-44
2023/07/26 10:53:37;;;;;;;2.72;1.30;;;18.30;97.80;;;;;;5036979;28;20052;-45
2023/07/26 10:56:10;;;;;;;2.88;1.30;;;17.90;98.90;;;;;;5048677;28;20388;-44
2023/07/26 10:58:36;;;;;;;2.03;1.17;;;17.90;99.80;;;;;;5040060;28;20056;-44
2023/07/26 11:01:03;;;;;;;3.10;1.35;;;17.60;99.90;;;;;;5028492;28;20034;-43
2023/07/26 11:03:29;;;;;;;2.63;1.45;;;17.80;99.90;;;;;;5027577;28;20092;-44
2023/07/26 11:05:58;;;;;;;2.55;1.67;;;18.30;99.90;;;;;;5026111;28;20076;-45
2023/07/26 11:08:41;;;;;;;2.55;1.50;;;18.70;99.90;;;;;;5027060;28;20093;-45
2023/07/26 11:11:07;;;;;;;4.03;1.70;;;19.10;99.90;;;;;;5028730;28;20053;-44
2023/07/26 11:13:33;;;;;;;3.60;1.80;;;19.30;99.30;;;;;;5032566;28;20403;-49
2023/07/26 11:16:01;;;;;;;2.70;1.42;;;19.50;99.30;;;;;;5039441;28;20049;-45
2023/07/26 11:18:27;;;;;;;2.65;1.80;;;19.70;99.40;;;;;;5027414;28;20042;-46
2023/07/26 11:20:55;;;;;;;3.88;1.60;;;19.80;98.90;;;;;;5042773;28;20050;-46
2023/07/26 11:23:28;;;;;;;3.13;1.88;;;19.70;99.30;;;;;;5033449;28;20121;-46
2023/07/26 11:25:59;;;;;;;3.80;1.88;;;19.80;99.20;;;;;;5031774;28;20041;-46
2023/07/26 11:28:28;;;;;;;3.08;2.00;;;19.70;99.00;;;;;;5033492;28;20115;-43
2023/07/26 11:30:56;;;;;;;3.50;1.70;;;19.50;98.60;;;;;;5032702;28;20052;-44
2023/07/26 11:33:33;;;;;;;2.97;1.70;;;19.30;98.80;;;;;;5031041;28;20136;-44
2023/07/26 11:36:00;;;;;;;3.33;1.80;;;19.30;99.60;;;;;;5033044;28;20190;-44
2023/07/26 11:38:27;;;;;;;3.33;1.42;;;19.40;99.30;;;;;;5034468;28;20060;-43
2023/07/26 11:40:53;;;;;;;2.10;1.40;;;19.60;99.00;;;;;;5032386;28;20038;-46
2023/07/26 11:43:20;;;;;;;2.53;1.33;;;19.50;98.60;;;;;;5032401;28;20124;-44
2023/07/26 11:45:46;;;;;;;3.10;1.60;;;19.40;98.00;;;;;;5033194;28;20096;-43
2023/07/26 11:48:14;;;;;;;2.58;1.10;;;19.10;98.20;;;;;;5029950;28;20073;-43
2023/07/26 11:50:39;;;;;;;4.00;1.20;;;18.90;99.40;;;;;;5031278;28;20057;-43
2023/07/26 11:53:07;;;;;;;3.47;1.20;;;18.60;99.90;;;;;;5030660;28;20041;-44
2023/07/26 11:55:34;;;;;;;5.28;1.42;;;18.10;99.90;;;;;;5031642;28;20069;-44
2023/07/26 11:58:04;;;;;;;6.65;1.60;;;17.50;99.90;;;;;;5033131;28;20515;-45
2023/07/26 12:00:31;;;;;;;4.43;1.40;;;17.20;99.90;;;;;;5032609;28;20029;-44
2023/07/26 12:02:57;;;;;;;5.00;1.38;;;16.90;99.90;;;;;;5032756;28;20036;-43
2023/07/26 12:05:26;;;;;;;3.75;1.00;;;16.70;99.90;;;;;;5032356;28;20043;-44
2023/07/26 12:08:05;;;;;;;2.85;1.10;;;16.70;99.90;;;;;;5032234;28;20038;-44
2023/07/26 12:10:35;;;;;;;4.03;1.10;;;16.70;99.90;;;;;;5033053;28;20552;-46
2023/07/26 12:13:09;;;;;;;4.90;1.27;;;16.60;99.90;;;;;;5031342;28;20059;-45
2023/07/26 12:15:57;;;;;;;2.58;1.00;;;16.50;99.90;;;;;;5031901;28;20045;-46
2023/07/26 12:18:24;;;;;;;3.17;1.02;;;16.50;99.90;;;;;;5028313;28;20049;-45
2023/07/26 12:21:02;;;;;;;1.55;0.95;;;16.30;99.90;;;;;;5032369;28;21046;-46
2023/07/26 12:23:28;;;;;;;2.13;1.00;;;16.40;99.90;;;;;;5031636;28;20045;-46
2023/07/26 12:25:57;;;;;;;1.80;0.73;;;16.30;99.90;;;;;;5031732;28;20091;-45
2023/07/26 12:28:26;;;;;;;2.00;1.00;;;16.30;99.90;;;;;;5031686;28;20041;-45
2023/07/26 12:30:58;;;;;;;1.63;0.90;;;16.60;99.90;;;;;;5022457;28;20041;-47
2023/07/26 12:33:25;;;;;;;2.65;1.10;;;16.60;99.90;;;;;;5031230;28;20044;-46
2023/07/26 12:35:55;;;;;;;1.58;0.80;;;16.50;99.90;;;;;;5032218;28;20132;-45
2023/07/26 12:38:22;;;;;;;2.28;0.98;;;16.60;99.90;;;;;;5030888;28;20123;-47
2023/07/26 12:40:49;;;;;;;1.77;0.90;;;16.60;99.90;;;;;;5032163;28;20041;-45
2023/07/26 12:43:27;;;;;;;1.45;0.80;;;16.60;99.90;;;;;;5032037;28;20048;-45
2023/07/26 12:45:54;;;;;;;2.13;0.80;;;16.60;99.90;;;;;;5031670;28;20045;-47
2023/07/26 12:48:21;;;;;;;1.20;0.70;;;16.70;99.90;;;;;;5030804;28;20524;-49